Salavat, Russia
Current Conditions -  °F | °C
As of 5:30 AM on Thursday 23 Oct 2014 (Local Time) from UWUU Reporting Station
Light Snow Light Snow  
Wind Chill:   Ceiling: 2200
Heat Index: 23°   Visibility: 2.8mi
Dew Point: 18°   Wind: 18mph
Humidity: 80%   Direction: 270°W
Pressure: 29.65"   Gusts: NA
Location:  53.37°N, 55.92°E
Report Text: UWUU 230030Z 27008MPS 4500 -SN OVC022 M05/M08 Q1004 320///60NOSIG RMK QFE741/0988
Loading
Personal Weather Stations






























Interactive Weather Map
Tropical Storm Tracking
New forecast layout! Learn more

10-Day Weather Forecast

Advertisements
Track Severe Weather on mobile